Time;durP1;ratioP1;P1;durP2;ratioP2;P2;SDS_P1;SDS_P2;PMS_P1;PMS_P2;Temp;Humidity;BMP_temperature;BMP_pressure;BME280_temperature;BME280_humidity;BME280_pressure;Samples;Min_cycle;Max_cycle;Signal;HPM_P1;HPM_P2
2021/01/17 00:01:20;;;;;;;;;;;;;;;;;;5072711;28;19924;-67
2021/01/17 00:03:47;;;;;;;;;;;;;;;;;;5064913;28;19925;-68
2021/01/17 00:06:13;;;;;;;;;;;;;;;;;;5074297;28;20457;-67
2021/01/17 00:08:40;;;;;;;;;;;;;;;;;;5075384;28;19975;-70
2021/01/17 00:11:06;;;;;;;;;;;;;;;;;;5075248;28;19924;-68
2021/01/17 00:13:33;;;;;;;;;;;;;;;;;;5073766;28;19924;-68
2021/01/17 00:15:59;;;;;;;;;;;;;;;;;;5074024;28;20019;-67
2021/01/17 00:18:26;;;;;;;;;;;;;;;;;;5058358;28;20470;-67
2021/01/17 00:20:52;;;;;;;;;;;;;;;;;;5075019;28;20006;-67
2021/01/17 00:23:19;;;;;;;;;;;;;;;;;;5075114;28;19925;-68
2021/01/17 00:25:45;;;;;;;;;;;;;;;;;;5070181;28;19924;-67
2021/01/17 00:28:12;;;;;;;;;;;;;;;;;;5055626;28;19925;-67
2021/01/17 00:30:38;;;;;;;;;;;;;;;;;;5083967;22;19981;-70
2021/01/17 00:33:05;;;;;;;;;;;;;;;;;;5082324;28;19985;-69
2021/01/17 00:35:31;;;;;;;;;;;;;;;;;;5076275;28;19984;-71
2021/01/17 00:37:58;;;;;;;;;;;;;;;;;;5074287;28;19925;-70
2021/01/17 00:40:24;;;;;;;;;;;;;;;;;;5073195;28;19925;-69
2021/01/17 00:42:51;;;;;;;;;;;;;;;;;;5070466;28;19948;-69
2021/01/17 00:45:17;;;;;;;;;;;;;;;;;;5076647;28;19932;-70
2021/01/17 00:47:44;;;;;;;;;;;;;;;;;;5076991;28;19931;-69
2021/01/17 00:50:11;;;;;;;;;;;;;;;;;;5078827;28;19925;-70
2021/01/17 00:52:37;;;;;;;;;;;;;;;;;;5076437;28;19932;-70
2021/01/17 00:55:04;;;;;;;;;;;;;;;;;;5074640;28;20295;-69
2021/01/17 00:57:30;;;;;;;;;;;;;;;;;;5067372;28;20407;-69
2021/01/17 00:59:57;;;;;;;;;;;;;;;;;;5066209;28;19928;-69
2021/01/17 01:02:23;;;;;;;;;;;;;;;;;;5078685;28;19970;-70
2021/01/17 01:04:50;;;;;;;;;;;;;;;;;;5070478;28;19967;-69
2021/01/17 01:07:16;;;;;;;;;;;;;;;;;;5078134;28;19979;-70
2021/01/17 01:09:43;;;;;;;;;;;;;;;;;;5067328;28;20037;-70
2021/01/17 01:12:09;;;;;;;;;;;;;;;;;;5069919;28;20027;-69
2021/01/17 01:14:36;;;;;;;;;;;;;;;;;;5073327;28;19924;-69
2021/01/17 01:17:02;;;;;;;;;;;;;;;;;;5076623;28;20023;-70
2021/01/17 01:19:29;;;;;;;;;;;;;;;;;;5077565;28;19929;-70
2021/01/17 01:21:55;;;;;;;;;;;;;;;;;;5074870;28;19928;-69
2021/01/17 01:24:22;;;;;;;;;;;;;;;;;;5066590;28;19928;-69
2021/01/17 01:26:48;;;;;;;;;;;;;;;;;;5077798;28;19963;-69
2021/01/17 01:29:15;;;;;;;;;;;;;;;;;;5074342;28;19924;-70
2021/01/17 01:31:42;;;;;;;;;;;;;;;;;;5069757;28;19977;-70
2021/01/17 01:34:09;;;;;;;;;;;;;;;;;;5069371;28;19929;-70
2021/01/17 01:36:35;;;;;;;;;;;;;;;;;;5063196;28;20335;-69
2021/01/17 01:39:02;;;;;;;;;;;;;;;;;;5072609;28;19925;-70
2021/01/17 01:41:28;;;;;;;;;;;;;;;;;;5065664;28;19951;-70
2021/01/17 01:43:55;;;;;;;;;;;;;;;;;;5075175;28;20420;-70
2021/01/17 01:46:21;;;;;;;;;;;;;;;;;;5078978;28;19924;-69
2021/01/17 01:48:48;;;;;;;;;;;;;;;;;;5071585;28;19924;-69
2021/01/17 01:51:14;;;;;;;;;;;;;;;;;;5069120;28;19942;-70
2021/01/17 01:53:41;;;;;;;;;;;;;;;;;;5072232;28;20062;-70
2021/01/17 01:56:07;;;;;;;;;;;;;;;;;;5063035;28;19986;-69
2021/01/17 01:58:34;;;;;;;;;;;;;;;;;;5073933;28;19969;-69
2021/01/17 02:01:00;;;;;;;;;;;;;;;;;;5075186;28;19972;-69
2021/01/17 02:03:27;;;;;;;;;;;;;;;;;;5074036;28;20020;-69
2021/01/17 02:05:53;;;;;;;;;;;;;;;;;;5068228;28;19924;-69
2021/01/17 02:08:20;;;;;;;;;;;;;;;;;;5077179;28;19971;-69
2021/01/17 02:10:46;;;;;;;;;;;;;;;;;;5070183;28;20407;-69
2021/01/17 02:13:13;;;;;;;;;;;;;;;;;;5062905;28;19924;-70
2021/01/17 02:15:39;;;;;;;;;;;;;;;;;;5069095;28;19929;-70
2021/01/17 02:18:06;;;;;;;;;;;;;;;;;;5072324;28;20347;-70
2021/01/17 02:20:32;;;;;;;;;;;;;;;;;;5068933;28;19924;-70
2021/01/17 02:22:59;;;;;;;;;;;;;;;;;;5075414;28;20620;-69
2021/01/17 02:25:25;;;;;;;;;;;;;;;;;;5072963;28;19999;-68
2021/01/17 02:27:52;;;;;;;;;;;;;;;;;;5072150;28;19932;-69
2021/01/17 02:30:19;;;;;;;;;;;;;;;;;;5071369;28;19936;-69
2021/01/17 02:32:45;;;;;;;;;;;;;;;;;;5073972;28;19978;-69
2021/01/17 02:35:12;;;;;;;;;;;;;;;;;;5075763;28;20378;-69
2021/01/17 02:37:38;;;;;;;;;;;;;;;;;;5064783;28;20015;-69
2021/01/17 02:40:05;;;;;;;;;;;;;;;;;;5075328;28;19963;-70
2021/01/17 02:42:31;;;;;;;;;;;;;;;;;;5073184;28;20392;-69
2021/01/17 02:44:58;;;;;;;;;;;;;;;;;;5069715;28;19924;-70
2021/01/17 02:47:24;;;;;;;;;;;;;;;;;;5073431;28;19964;-69
2021/01/17 02:49:51;;;;;;;;;;;;;;;;;;5071997;28;20420;-68
2021/01/17 02:52:17;;;;;;;;;;;;;;;;;;5070734;28;19933;-69
2021/01/17 02:54:44;;;;;;;;;;;;;;;;;;5074646;28;20363;-70
2021/01/17 02:57:10;;;;;;;;;;;;;;;;;;5072654;28;19924;-70
2021/01/17 02:59:37;;;;;;;;;;;;;;;;;;5075006;28;19963;-69
2021/01/17 03:02:03;;;;;;;;;;;;;;;;;;5072668;28;20019;-69
2021/01/17 03:04:30;;;;;;;;;;;;;;;;;;5075325;28;20337;-71
2021/01/17 03:06:57;;;;;;;;;;;;;;;;;;5067486;28;19931;-70
2021/01/17 03:09:23;;;;;;;;;;;;;;;;;;5066574;28;20007;-70
2021/01/17 03:11:50;;;;;;;;;;;;;;;;;;5069831;28;19928;-70
2021/01/17 03:14:16;;;;;;;;;;;;;;;;;;5069975;28;19942;-70
2021/01/17 03:16:43;;;;;;;;;;;;;;;;;;5076799;28;20393;-69
2021/01/17 03:19:09;;;;;;;;;;;;;;;;;;5075971;28;19924;-70
2021/01/17 03:21:36;;;;;;;;;;;;;;;;;;5073841;28;20023;-70
2021/01/17 03:24:02;;;;;;;;;;;;;;;;;;5067285;28;20011;-70
2021/01/17 03:26:29;;;;;;;;;;;;;;;;;;5059350;28;20304;-70
2021/01/17 03:28:55;;;;;;;;;;;;;;;;;;5070813;28;19997;-68
2021/01/17 03:31:22;;;;;;;;;;;;;;;;;;5077144;28;19925;-70
2021/01/17 03:33:48;;;;;;;;;;;;;;;;;;5081975;28;19939;-69
2021/01/17 03:36:15;;;;;;;;;;;;;;;;;;5074862;28;19970;-70
2021/01/17 03:38:41;;;;;;;;;;;;;;;;;;5074088;28;20304;-69
2021/01/17 03:41:08;;;;;;;;;;;;;;;;;;5081647;28;19924;-69
2021/01/17 03:43:34;;;;;;;;;;;;;;;;;;5068239;28;19928;-69
2021/01/17 03:46:01;;;;;;;;;;;;;;;;;;5079656;28;19931;-69
2021/01/17 03:48:27;;;;;;;;;;;;;;;;;;5079089;28;20007;-69
2021/01/17 03:50:54;;;;;;;;;;;;;;;;;;5079025;28;19977;-69
2021/01/17 03:53:20;;;;;;;;;;;;;;;;;;5071614;28;19931;-70
2021/01/17 03:55:47;;;;;;;;;;;;;;;;;;5063334;28;19924;-70
2021/01/17 03:58:13;;;;;;;;;;;;;;;;;;5076669;28;19960;-70
2021/01/17 04:00:39;;;;;;;;;;;;;;;;;;5078954;28;20388;-70
2021/01/17 04:03:06;;;;;;;;;;;;;;;;;;5081815;28;19924;-70
2021/01/17 04:05:33;;;;;;;;;;;;;;;;;;5080675;28;19947;-70
2021/01/17 04:07:59;;;;;;;;;;;;;;;;;;5081853;28;20384;-70
2021/01/17 04:10:26;;;;;;;;;;;;;;;;;;5080733;28;19924;-71
2021/01/17 04:12:52;;;;;;;;;;;;;;;;;;5079359;28;20360;-70
2021/01/17 04:15:19;;;;;;;;;;;;;;;;;;5078591;28;19964;-70
2021/01/17 04:17:45;;;;;;;;;;;;;;;;;;5081647;28;19925;-70
2021/01/17 04:20:12;;;;;;;;;;;;;;;;;;5078358;28;20037;-70
2021/01/17 04:22:38;;;;;;;;;;;;;;;;;;5080778;28;19976;-71
2021/01/17 04:25:05;;;;;;;;;;;;;;;;;;5080666;28;19962;-68
2021/01/17 04:27:31;;;;;;;;;;;;;;;;;;5068897;28;20431;-69
2021/01/17 04:29:58;;;;;;;;;;;;;;;;;;5071775;28;20361;-69
2021/01/17 04:32:24;;;;;;;;;;;;;;;;;;5079851;28;20011;-70
2021/01/17 04:34:51;;;;;;;;;;;;;;;;;;5080391;28;20007;-70
2021/01/17 04:37:17;;;;;;;;;;;;;;;;;;5076245;28;20017;-69
2021/01/17 04:39:44;;;;;;;;;;;;;;;;;;5070640;28;20383;-69
2021/01/17 04:42:11;;;;;;;;;;;;;;;;;;5076452;28;19924;-71
2021/01/17 04:44:37;;;;;;;;;;;;;;;;;;5076941;28;20389;-71
2021/01/17 04:47:04;;;;;;;;;;;;;;;;;;5075921;28;19925;-71
2021/01/17 04:49:30;;;;;;;;;;;;;;;;;;5076129;28;19978;-70
2021/01/17 04:51:57;;;;;;;;;;;;;;;;;;5075468;28;19925;-70
2021/01/17 04:54:23;;;;;;;;;;;;;;;;;;5075295;28;19924;-70
2021/01/17 04:56:50;;;;;;;;;;;;;;;;;;5075151;28;20367;-71
2021/01/17 04:59:16;;;;;;;;;;;;;;;;;;5074598;28;19933;-71
2021/01/17 05:01:43;;;;;;;;;;;;;;;;;;5069023;28;20341;-70
2021/01/17 05:04:09;;;;;;;;;;;;;;;;;;5064055;28;20016;-70
2021/01/17 05:06:36;;;;;;;;;;;;;;;;;;5071703;28;20007;-70
2021/01/17 05:09:03;;;;;;;;;;;;;;;;;;5063993;28;20019;-70
2021/01/17 05:11:30;;;;;;;;;;;;;;;;;;5071178;28;19925;-70
2021/01/17 05:13:56;;;;;;;;;;;;;;;;;;5061179;28;20346;-70
2021/01/17 05:16:23;;;;;;;;;;;;;;;;;;5070175;28;20350;-70
2021/01/17 05:18:49;;;;;;;;;;;;;;;;;;5068639;28;19931;-70
2021/01/17 05:21:16;;;;;;;;;;;;;;;;;;5074060;28;19934;-69
2021/01/17 05:23:42;;;;;;;;;;;;;;;;;;5075035;28;19993;-70
2021/01/17 05:26:09;;;;;;;;;;;;;;;;;;5074996;28;19933;-70
2021/01/17 05:28:35;;;;;;;;;;;;;;;;;;5073785;28;19928;-70
2021/01/17 05:31:02;;;;;;;;;;;;;;;;;;5071163;28;20056;-70
2021/01/17 05:33:28;;;;;;;;;;;;;;;;;;5074771;28;19975;-70
2021/01/17 05:35:55;;;;;;;;;;;;;;;;;;5085703;28;19928;-74
2021/01/17 05:38:21;;;;;;;;;;;;;;;;;;5080868;28;19951;-70
2021/01/17 05:40:48;;;;;;;;;;;;;;;;;;5087175;28;20019;-70
2021/01/17 05:43:14;;;;;;;;;;;;;;;;;;5076762;28;19964;-71
2021/01/17 05:45:40;;;;;;;;;;;;;;;;;;5079029;28;19931;-71
2021/01/17 05:48:07;;;;;;;;;;;;;;;;;;5094990;28;19984;-70
2021/01/17 05:50:33;;;;;;;;;;;;;;;;;;5094289;28;19936;-70
2021/01/17 05:53:00;;;;;;;;;;;;;;;;;;5089754;28;19931;-70
2021/01/17 05:55:26;;;;;;;;;;;;;;;;;;5083114;28;19948;-70
2021/01/17 05:57:53;;;;;;;;;;;;;;;;;;5056494;28;20019;-71
2021/01/17 06:00:19;;;;;;;;;;;;;;;;;;5054886;28;19936;-70
2021/01/17 06:02:46;;;;;;;;;;;;;;;;;;5054163;28;20011;-71
2021/01/17 06:05:12;;;;;;;;;;;;;;;;;;5054560;28;20128;-70
2021/01/17 06:07:39;;;;;;;;;;;;;;;;;;5053906;28;19979;-70
2021/01/17 06:10:05;;;;;;;;;;;;;;;;;;5064421;28;20361;-70
2021/01/17 06:12:32;;;;;;;;;;;;;;;;;;5074277;28;20022;-70
2021/01/17 06:14:58;;;;;;;;;;;;;;;;;;5074306;28;19936;-70
2021/01/17 06:17:25;;;;;;;;;;;;;;;;;;5074292;28;20415;-69
2021/01/17 06:19:51;;;;;;;;;;;;;;;;;;5073469;28;19987;-70
2021/01/17 06:22:18;;;;;;;;;;;;;;;;;;5073741;28;19935;-70
2021/01/17 06:24:44;;;;;;;;;;;;;;;;;;5073913;28;19924;-70
2021/01/17 06:27:11;;;;;;;;;;;;;;;;;;5073782;28;19928;-70
2021/01/17 06:29:37;;;;;;;;;;;;;;;;;;5073797;28;19929;-70
2021/01/17 06:32:04;;;;;;;;;;;;;;;;;;5103895;22;20413;-69
2021/01/17 06:34:30;;;;;;;;;;;;;;;;;;5075925;28;20027;-67
2021/01/17 06:36:57;;;;;;;;;;;;;;;;;;5076509;28;19931;-67
2021/01/17 06:39:23;;;;;;;;;;;;;;;;;;5090343;28;20040;-67
2021/01/17 06:41:53;;;;;;;;;;;;;;;;;;5069271;28;19924;-67
2021/01/17 06:44:19;;;;;;;;;;;;;;;;;;5062965;28;20058;-66
2021/01/17 06:46:46;;;;;;;;;;;;;;;;;;5057590;28;19931;-67
2021/01/17 06:49:12;;;;;;;;;;;;;;;;;;5069518;28;19974;-67
2021/01/17 06:51:39;;;;;;;;;;;;;;;;;;5067174;28;19924;-67
2021/01/17 06:54:05;;;;;;;;;;;;;;;;;;5063831;28;20384;-67
2021/01/17 06:56:31;;;;;;;;;;;;;;;;;;5071611;28;19931;-67
2021/01/17 06:58:58;;;;;;;;;;;;;;;;;;5063540;28;19946;-67
2021/01/17 07:01:24;;;;;;;;;;;;;;;;;;5065403;28;19949;-67
2021/01/17 07:03:51;;;;;;;;;;;;;;;;;;5075036;28;20151;-68
2021/01/17 07:06:17;;;;;;;;;;;;;;;;;;5060036;28;19925;-68
2021/01/17 07:08:44;;;;;;;;;;;;;;;;;;5071278;28;19924;-68
2021/01/17 07:11:10;;;;;;;;;;;;;;;;;;5075369;28;20023;-68
2021/01/17 07:13:37;;;;;;;;;;;;;;;;;;5063737;28;20016;-67
2021/01/17 07:16:04;;;;;;;;;;;;;;;;;;5063877;28;20104;-67
2021/01/17 07:18:30;;;;;;;;;;;;;;;;;;5063401;28;19932;-67
2021/01/17 07:20:56;;;;;;;;;;;;;;;;;;5075223;28;20299;-68
2021/01/17 07:23:23;;;;;;;;;;;;;;;;;;5072412;28;19924;-67
2021/01/17 07:25:49;;;;;;;;;;;;;;;;;;5067785;28;19925;-68
2021/01/17 07:28:16;;;;;;;;;;;;;;;;;;5075694;28;19948;-68
2021/01/17 07:30:42;;;;;;;;;;;;;;;;;;5074788;28;20016;-69
2021/01/17 07:33:09;;;;;;;;;;;;;;;;;;5063610;28;19924;-67
2021/01/17 07:35:35;;;;;;;;;;;;;;;;;;5062667;28;19956;-68
2021/01/17 07:38:02;;;;;;;;;;;;;;;;;;5069854;28;19924;-65
2021/01/17 07:43:09;;;;;;;;;;;;;;;;;;5066986;28;20008;-68
2021/01/17 07:45:36;;;;;;;;;;;;;;;;;;5075728;28;19967;-68
2021/01/17 07:48:02;;;;;;;;;;;;;;;;;;5075864;28;20009;-66
2021/01/17 07:50:28;;;;;;;;;;;;;;;;;;5073455;28;19978;-66
2021/01/17 07:52:56;;;;;;;;;;;;;;;;;;5061529;28;19932;-66
2021/01/17 07:55:23;;;;;;;;;;;;;;;;;;5076103;28;19924;-65
2021/01/17 07:57:49;;;;;;;;;;;;;;;;;;5073276;28;19925;-66
2021/01/17 08:00:15;;;;;;;;;;;;;;;;;;5061493;28;19928;-66
2021/01/17 08:02:42;;;;;;;;;;;;;;;;;;5075062;28;19925;-66
2021/01/17 08:05:08;;;;;;;;;;;;;;;;;;5074608;28;19924;-67
2021/01/17 08:07:35;;;;;;;;;;;;;;;;;;5061753;28;20351;-66
2021/01/17 08:10:01;;;;;;;;;;;;;;;;;;5061858;28;19928;-66
2021/01/17 08:12:27;;;;;;;;;;;;;;;;;;5067300;28;19931;-67
2021/01/17 08:14:54;;;;;;;;;;;;;;;;;;5066039;28;19924;-67
2021/01/17 08:17:20;;;;;;;;;;;;;;;;;;5074064;28;20399;-67
2021/01/17 08:19:47;;;;;;;;;;;;;;;;;;5066882;28;19925;-67
2021/01/17 08:22:13;;;;;;;;;;;;;;;;;;5074834;28;20448;-67
2021/01/17 08:24:40;;;;;;;;;;;;;;;;;;5074926;28;19930;-67
2021/01/17 08:27:06;;;;;;;;;;;;;;;;;;5074124;28;19936;-70
2021/01/17 08:29:33;;;;;;;;;;;;;;;;;;5075419;28;19925;-68
2021/01/17 08:31:59;;;;;;;;;;;;;;;;;;5068274;28;19925;-68
2021/01/17 08:34:25;;;;;;;;;;;;;;;;;;5073002;28;19928;-68
2021/01/17 08:36:52;;;;;;;;;;;;;;;;;;5067360;28;20027;-68
2021/01/17 08:39:18;;;;;;;;;;;;;;;;;;5063796;28;19928;-68
2021/01/17 08:41:45;;;;;;;;;;;;;;;;;;5067500;28;20413;-67
2021/01/17 08:44:13;;;;;;;;;;;;;;;;;;5066058;28;20376;-67
2021/01/17 08:46:39;;;;;;;;;;;;;;;;;;5075102;28;19925;-67
2021/01/17 08:49:05;;;;;;;;;;;;;;;;;;5069633;28;19969;-67
2021/01/17 08:51:32;;;;;;;;;;;;;;;;;;5065289;28;19925;-67
2021/01/17 08:53:58;;;;;;;;;;;;;;;;;;5067471;28;19924;-67
2021/01/17 08:56:25;;;;;;;;;;;;;;;;;;5059401;28;20058;-67
2021/01/17 08:58:51;;;;;;;;;;;;;;;;;;5060317;28;20064;-67
2021/01/17 09:01:18;;;;;;;;;;;;;;;;;;5071733;28;19925;-67
2021/01/17 09:03:44;;;;;;;;;;;;;;;;;;5063814;28;19975;-67
2021/01/17 09:06:11;;;;;;;;;;;;;;;;;;5068430;28;19928;-67
2021/01/17 09:08:39;;;;;;;;;;;;;;;;;;5065154;28;19978;-66
2021/01/17 09:11:06;;;;;;;;;;;;;;;;;;5063017;28;19967;-67
2021/01/17 09:13:32;;;;;;;;;;;;;;;;;;5074460;28;19925;-67
2021/01/17 09:15:59;;;;;;;;;;;;;;;;;;5067764;28;19978;-66
2021/01/17 09:18:25;;;;;;;;;;;;;;;;;;5059036;28;19929;-70
2021/01/17 09:20:52;;;;;;;;;;;;;;;;;;5057986;28;19978;-69
2021/01/17 09:23:18;;;;;;;;;;;;;;;;;;5063528;28;20035;-68
2021/01/17 09:25:45;;;;;;;;;;;;;;;;;;5060264;28;19925;-68
2021/01/17 09:28:11;;;;;;;;;;;;;;;;;;5066248;28;19935;-67
2021/01/17 09:30:38;;;;;;;;;;;;;;;;;;5062843;28;19945;-67
2021/01/17 09:33:04;;;;;;;;;;;;;;;;;;5072309;28;19928;-66
2021/01/17 09:35:31;;;;;;;;;;;;;;;;;;5067451;28;19936;-68
2021/01/17 09:37:57;;;;;;;;;;;;;;;;;;5072599;28;20186;-69
2021/01/17 09:40:24;;;;;;;;;;;;;;;;;;5065965;28;20047;-69
2021/01/17 09:42:50;;;;;;;;;;;;;;;;;;5068018;28;19935;-69
2021/01/17 09:45:17;;;;;;;;;;;;;;;;;;5073140;28;20393;-69
2021/01/17 09:47:43;;;;;;;;;;;;;;;;;;5073397;28;20031;-70
2021/01/17 09:50:10;;;;;;;;;;;;;;;;;;5073988;28;19925;-69
2021/01/17 09:52:36;;;;;;;;;;;;;;;;;;5065381;28;19924;-70
2021/01/17 09:55:02;;;;;;;;;;;;;;;;;;5073994;28;19932;-73
2021/01/17 09:57:29;;;;;;;;;;;;;;;;;;5062573;28;19928;-70
2021/01/17 09:59:55;;;;;;;;;;;;;;;;;;5061043;28;20296;-70
2021/01/17 10:02:22;;;;;;;;;;;;;;;;;;5060957;28;19935;-69
2021/01/17 10:04:49;;;;;;;;;;;;;;;;;;5067466;28;19928;-69
2021/01/17 10:07:15;;;;;;;;;;;;;;;;;;5072705;28;19924;-70
2021/01/17 10:09:42;;;;;;;;;;;;;;;;;;5064784;28;19924;-70
2021/01/17 10:12:08;;;;;;;;;;;;;;;;;;5065758;28;19932;-69
2021/01/17 10:14:35;;;;;;;;;;;;;;;;;;5068279;28;19979;-69
2021/01/17 10:17:01;;;;;;;;;;;;;;;;;;5065188;28;20411;-71
2021/01/17 10:19:28;;;;;;;;;;;;;;;;;;5068973;28;19934;-69
2021/01/17 10:21:54;;;;;;;;;;;;;;;;;;5069856;28;19928;-68
2021/01/17 10:24:21;;;;;;;;;;;;;;;;;;5068771;28;19929;-69
2021/01/17 10:26:47;;;;;;;;;;;;;;;;;;5069296;28;19978;-69
2021/01/17 10:29:14;;;;;;;;;;;;;;;;;;5069137;28;20329;-69
2021/01/17 10:31:40;;;;;;;;;;;;;;;;;;5063859;28;20396;-72
2021/01/17 10:34:07;;;;;;;;;;;;;;;;;;5063936;28;19967;-69
2021/01/17 10:36:33;;;;;;;;;;;;;;;;;;5064366;28;19928;-71
2021/01/17 10:39:00;;;;;;;;;;;;;;;;;;5070976;28;19924;-69
2021/01/17 10:41:27;;;;;;;;;;;;;;;;;;5071034;28;19924;-68
2021/01/17 10:43:54;;;;;;;;;;;;;;;;;;5070119;28;19929;-68
2021/01/17 10:46:20;;;;;;;;;;;;;;;;;;5067769;28;19929;-69
2021/01/17 10:48:48;;;;;;;;;;;;;;;;;;5059133;28;20467;-70
2021/01/17 10:51:15;;;;;;;;;;;;;;;;;;5066941;28;19931;-70
2021/01/17 10:53:45;;;;;;;;;;;;;;;;;;5068166;28;20414;-70
2021/01/17 10:56:12;;;;;;;;;;;;;;;;;;5070221;28;20102;-71
2021/01/17 10:58:38;;;;;;;;;;;;;;;;;;5068369;28;20362;-71
2021/01/17 11:01:05;;;;;;;;;;;;;;;;;;5066305;28;19924;-70
2021/01/17 11:03:34;;;;;;;;;;;;;;;;;;5069532;28;19933;-70
2021/01/17 11:06:00;;;;;;;;;;;;;;;;;;5070341;28;19928;-69
2021/01/17 11:08:27;;;;;;;;;;;;;;;;;;5068670;28;19948;-69
2021/01/17 11:10:53;;;;;;;;;;;;;;;;;;5056516;28;19935;-70
2021/01/17 11:13:20;;;;;;;;;;;;;;;;;;5061844;28;19967;-69
2021/01/17 11:15:46;;;;;;;;;;;;;;;;;;5070220;28;19992;-70
2021/01/17 11:18:13;;;;;;;;;;;;;;;;;;5058984;28;19925;-69
2021/01/17 11:20:39;;;;;;;;;;;;;;;;;;5068893;28;19932;-69
2021/01/17 11:23:06;;;;;;;;;;;;;;;;;;5064424;28;19935;-70
2021/01/17 11:25:32;;;;;;;;;;;;;;;;;;5069533;28;20319;-70
2021/01/17 11:27:59;;;;;;;;;;;;;;;;;;5062335;28;19931;-69
2021/01/17 11:30:26;;;;;;;;;;;;;;;;;;5065632;28;19957;-70
2021/01/17 11:32:53;;;;;;;;;;;;;;;;;;5060302;28;20365;-71
2021/01/17 11:35:19;;;;;;;;;;;;;;;;;;5056188;28;20412;-70
2021/01/17 11:37:46;;;;;;;;;;;;;;;;;;5069127;28;19931;-69
2021/01/17 11:40:12;;;;;;;;;;;;;;;;;;5068561;28;19978;-69
2021/01/17 11:42:41;;;;;;;;;;;;;;;;;;5067836;28;20304;-69
2021/01/17 11:45:08;;;;;;;;;;;;;;;;;;5065568;28;19932;-69
2021/01/17 11:47:36;;;;;;;;;;;;;;;;;;5064945;28;20012;-69
2021/01/17 11:50:03;;;;;;;;;;;;;;;;;;5068209;28;19934;-69
2021/01/17 11:52:29;;;;;;;;;;;;;;;;;;5072172;28;19936;-69
2021/01/17 11:54:58;;;;;;;;;;;;;;;;;;5072873;28;19924;-69
2021/01/17 11:57:27;;;;;;;;;;;;;;;;;;5063807;28;20027;-70
2021/01/17 11:59:54;;;;;;;;;;;;;;;;;;5056614;28;20361;-69
2021/01/17 12:02:20;;;;;;;;;;;;;;;;;;5065994;28;19964;-69
2021/01/17 12:04:47;;;;;;;;;;;;;;;;;;5066158;28;20389;-69
2021/01/17 12:07:13;;;;;;;;;;;;;;;;;;5060354;28;19925;-70
2021/01/17 12:09:39;;;;;;;;;;;;;;;;;;5065608;28;20505;-68
2021/01/17 12:12:06;;;;;;;;;;;;;;;;;;5064807;28;19932;-67
2021/01/17 12:14:32;;;;;;;;;;;;;;;;;;5069739;28;20276;-67
2021/01/17 12:16:59;;;;;;;;;;;;;;;;;;5068843;28;20023;-67
2021/01/17 12:19:25;;;;;;;;;;;;;;;;;;5066065;28;19924;-70
2021/01/17 12:21:52;;;;;;;;;;;;;;;;;;5068527;28;20520;-69
2021/01/17 12:24:18;;;;;;;;;;;;;;;;;;5070846;28;19933;-70
2021/01/17 12:26:45;;;;;;;;;;;;;;;;;;5067364;28;19979;-68
2021/01/17 12:29:11;;;;;;;;;;;;;;;;;;5066291;28;19990;-68
2021/01/17 12:31:38;;;;;;;;;;;;;;;;;;5076640;22;19925;-67
2021/01/17 12:34:05;;;;;;;;;;;;;;;;;;5048199;28;20016;-69
2021/01/17 12:36:31;;;;;;;;;;;;;;;;;;5051644;28;20184;-68
2021/01/17 12:38:58;;;;;;;;;;;;;;;;;;5051433;28;19931;-69
2021/01/17 12:41:25;;;;;;;;;;;;;;;;;;5048274;28;19929;-69
2021/01/17 12:43:52;;;;;;;;;;;;;;;;;;5051745;28;19994;-69
2021/01/17 12:46:18;;;;;;;;;;;;;;;;;;5050991;28;19979;-70
2021/01/17 12:48:45;;;;;;;;;;;;;;;;;;5049730;28;19937;-68
2021/01/17 12:51:11;;;;;;;;;;;;;;;;;;5052042;28;20007;-68
2021/01/17 12:53:38;;;;;;;;;;;;;;;;;;5049817;28;19931;-68
2021/01/17 12:56:04;;;;;;;;;;;;;;;;;;5055840;28;19928;-68
2021/01/17 12:58:31;;;;;;;;;;;;;;;;;;5051959;28;19925;-68
2021/01/17 13:00:57;;;;;;;;;;;;;;;;;;5052043;28;19924;-68
2021/01/17 13:03:24;;;;;;;;;;;;;;;;;;5048280;28;20348;-68
2021/01/17 13:05:50;;;;;;;;;;;;;;;;;;5051701;28;20028;-68
2021/01/17 13:08:17;;;;;;;;;;;;;;;;;;5051387;28;19924;-68
2021/01/17 13:10:43;;;;;;;;;;;;;;;;;;5052290;28;19994;-68
2021/01/17 13:13:11;;;;;;;;;;;;;;;;;;5052591;28;19995;-68
2021/01/17 13:15:37;;;;;;;;;;;;;;;;;;5052694;28;20395;-66
2021/01/17 13:18:04;;;;;;;;;;;;;;;;;;5048324;28;19936;-66
2021/01/17 13:20:30;;;;;;;;;;;;;;;;;;5046368;28;19972;-68
2021/01/17 13:22:57;;;;;;;;;;;;;;;;;;5049714;28;20447;-69
2021/01/17 13:25:23;;;;;;;;;;;;;;;;;;5050408;28;19925;-71
2021/01/17 13:27:49;;;;;;;;;;;;;;;;;;5050176;28;19936;-69
2021/01/17 13:30:16;;;;;;;;;;;;;;;;;;5049567;28;20011;-70
2021/01/17 13:32:42;;;;;;;;;;;;;;;;;;5044948;28;19924;-69
2021/01/17 13:35:09;;;;;;;;;;;;;;;;;;5051759;28;20395;-70
2021/01/17 13:37:35;;;;;;;;;;;;;;;;;;5051108;28;20020;-70
2021/01/17 13:40:02;;;;;;;;;;;;;;;;;;5048157;28;19961;-68
2021/01/17 13:42:28;;;;;;;;;;;;;;;;;;5050270;28;19937;-68
2021/01/17 13:44:55;;;;;;;;;;;;;;;;;;5049402;28;19970;-65
2021/01/17 13:47:21;;;;;;;;;;;;;;;;;;5049373;28;19936;-66
2021/01/17 13:49:48;;;;;;;;;;;;;;;;;;5049395;28;19924;-67
2021/01/17 13:52:14;;;;;;;;;;;;;;;;;;5046766;28;20373;-68
2021/01/17 13:54:41;;;;;;;;;;;;;;;;;;5050711;28;19967;-71
2021/01/17 13:57:07;;;;;;;;;;;;;;;;;;5049377;28;20011;-70
2021/01/17 13:59:34;;;;;;;;;;;;;;;;;;5050343;28;19929;-69
2021/01/17 14:02:00;;;;;;;;;;;;;;;;;;5047517;28;19967;-68
2021/01/17 14:04:27;;;;;;;;;;;;;;;;;;5044485;28;19931;-69
2021/01/17 14:06:53;;;;;;;;;;;;;;;;;;5049831;28;20347;-68
2021/01/17 14:09:19;;;;;;;;;;;;;;;;;;5050540;28;19975;-68
2021/01/17 14:11:46;;;;;;;;;;;;;;;;;;5050386;28;19968;-68
2021/01/17 14:14:12;;;;;;;;;;;;;;;;;;5048203;28;20007;-69
2021/01/17 14:16:39;;;;;;;;;;;;;;;;;;5048881;28;19948;-69
2021/01/17 14:19:05;;;;;;;;;;;;;;;;;;5047871;28;19979;-69
2021/01/17 14:21:32;;;;;;;;;;;;;;;;;;5051158;28;19924;-68
2021/01/17 14:23:58;;;;;;;;;;;;;;;;;;5050124;28;19991;-68
2021/01/17 14:26:25;;;;;;;;;;;;;;;;;;5045264;28;20376;-68
2021/01/17 14:28:51;;;;;;;;;;;;;;;;;;5049069;28;19934;-69
2021/01/17 14:31:18;;;;;;;;;;;;;;;;;;5051410;28;19975;-69
2021/01/17 14:33:44;;;;;;;;;;;;;;;;;;5049716;28;19929;-68
2021/01/17 14:36:11;;;;;;;;;;;;;;;;;;5044384;28;19924;-69
2021/01/17 14:38:37;;;;;;;;;;;;;;;;;;5049744;28;19931;-70
2021/01/17 14:41:04;;;;;;;;;;;;;;;;;;5046189;28;19924;-69
2021/01/17 14:43:30;;;;;;;;;;;;;;;;;;5049185;28;20228;-69
2021/01/17 14:45:56;;;;;;;;;;;;;;;;;;5044564;28;19950;-69
2021/01/17 14:48:23;;;;;;;;;;;;;;;;;;5046228;28;20016;-69
2021/01/17 14:50:49;;;;;;;;;;;;;;;;;;5048509;28;20002;-68
2021/01/17 14:53:16;;;;;;;;;;;;;;;;;;5049485;28;20020;-69
2021/01/17 14:55:42;;;;;;;;;;;;;;;;;;5049692;28;20020;-69
2021/01/17 14:58:09;;;;;;;;;;;;;;;;;;5049035;28;19931;-68
2021/01/17 15:00:35;;;;;;;;;;;;;;;;;;5050079;28;19925;-69
2021/01/17 15:03:02;;;;;;;;;;;;;;;;;;5041519;28;19929;-69
2021/01/17 15:05:28;;;;;;;;;;;;;;;;;;5046815;28;20366;-69
2021/01/17 15:07:56;;;;;;;;;;;;;;;;;;5048403;28;20027;-70
2021/01/17 15:10:22;;;;;;;;;;;;;;;;;;5049054;28;19925;-70
2021/01/17 15:12:48;;;;;;;;;;;;;;;;;;5046793;28;19925;-70
2021/01/17 15:15:15;;;;;;;;;;;;;;;;;;5046846;28;20369;-70
2021/01/17 15:17:42;;;;;;;;;;;;;;;;;;5046942;28;20304;-70
2021/01/17 15:20:08;;;;;;;;;;;;;;;;;;5043874;28;20020;-70
2021/01/17 15:22:34;;;;;;;;;;;;;;;;;;5044839;28;20183;-70
2021/01/17 15:25:01;;;;;;;;;;;;;;;;;;5052812;28;19931;-71
2021/01/17 15:27:27;;;;;;;;;;;;;;;;;;5053758;28;20068;-71
2021/01/17 15:29:54;;;;;;;;;;;;;;;;;;5053693;28;19975;-70
2021/01/17 15:32:20;;;;;;;;;;;;;;;;;;5051695;28;19925;-70
2021/01/17 15:34:47;;;;;;;;;;;;;;;;;;5045519;28;19928;-70
2021/01/17 15:37:13;;;;;;;;;;;;;;;;;;5051878;28;19968;-70
2021/01/17 15:39:40;;;;;;;;;;;;;;;;;;5052428;28;20456;-70
2021/01/17 15:42:06;;;;;;;;;;;;;;;;;;5051730;28;19967;-70
2021/01/17 15:44:33;;;;;;;;;;;;;;;;;;5045017;28;20403;-70
2021/01/17 15:46:59;;;;;;;;;;;;;;;;;;5050535;28;20007;-69
2021/01/17 15:49:26;;;;;;;;;;;;;;;;;;5044633;28;19932;-70
2021/01/17 15:51:52;;;;;;;;;;;;;;;;;;5052936;28;19928;-70
2021/01/17 15:54:18;;;;;;;;;;;;;;;;;;5046623;28;19925;-70
2021/01/17 15:56:45;;;;;;;;;;;;;;;;;;5047137;28;19928;-71
2021/01/17 15:59:11;;;;;;;;;;;;;;;;;;5046903;28;20400;-69
2021/01/17 16:01:38;;;;;;;;;;;;;;;;;;5052270;28;20415;-69
2021/01/17 16:04:04;;;;;;;;;;;;;;;;;;5048826;28;20432;-70
2021/01/17 16:06:31;;;;;;;;;;;;;;;;;;5053412;28;20056;-70
2021/01/17 16:08:57;;;;;;;;;;;;;;;;;;5048023;28;20093;-69
2021/01/17 16:11:24;;;;;;;;;;;;;;;;;;5050468;28;20033;-69
2021/01/17 16:13:50;;;;;;;;;;;;;;;;;;5054303;28;20288;-70
2021/01/17 16:16:17;;;;;;;;;;;;;;;;;;5050254;28;20307;-69
2021/01/17 16:18:43;;;;;;;;;;;;;;;;;;5051820;28;19963;-67
2021/01/17 16:21:10;;;;;;;;;;;;;;;;;;5048074;28;19952;-69
2021/01/17 16:23:36;;;;;;;;;;;;;;;;;;5049433;28;20360;-69
2021/01/17 16:26:03;;;;;;;;;;;;;;;;;;5047506;28;20003;-69
2021/01/17 16:28:29;;;;;;;;;;;;;;;;;;5052004;28;20285;-69
2021/01/17 16:30:56;;;;;;;;;;;;;;;;;;5047775;28;20369;-69
2021/01/17 16:33:22;;;;;;;;;;;;;;;;;;5052126;28;20049;-69
2021/01/17 16:35:49;;;;;;;;;;;;;;;;;;5051047;28;19986;-69
2021/01/17 16:38:15;;;;;;;;;;;;;;;;;;5051463;28;20454;-69
2021/01/17 16:40:43;;;;;;;;;;;;;;;;;;5052528;28;20273;-69
2021/01/17 16:43:10;;;;;;;;;;;;;;;;;;5051438;28;20413;-70